sensor_id;sensor_type;location;lat;lon;timestamp;temperature;humidity
67777;DHT22;54576;52.020;5.536;2024-02-23T00:02:16;5.80;99.90
67777;DHT22;54576;52.020;5.536;2024-02-23T00:04:42;5.80;99.90
67777;DHT22;54576;52.020;5.536;2024-02-23T00:07:07;5.80;99.90
67777;DHT22;54576;52.020;5.536;2024-02-23T00:09:33;5.80;99.90
67777;DHT22;54576;52.020;5.536;2024-02-23T00:11:59;5.80;99.90
67777;DHT22;54576;52.020;5.536;2024-02-23T00:14:25;5.80;99.90
67777;DHT22;54576;52.020;5.536;2024-02-23T00:16:51;5.80;99.90
67777;DHT22;54576;52.020;5.536;2024-02-23T00:19:17;5.80;99.90
67777;DHT22;54576;52.020;5.536;2024-02-23T00:21:45;5.80;99.90
67777;DHT22;54576;52.020;5.536;2024-02-23T00:24:15;5.80;99.90
67777;DHT22;54576;52.020;5.536;2024-02-23T00:26:42;5.80;99.90
67777;DHT22;54576;52.020;5.536;2024-02-23T00:29:07;5.80;99.90
67777;DHT22;54576;52.020;5.536;2024-02-23T00:31:33;5.80;99.90
67777;DHT22;54576;52.020;5.536;2024-02-23T00:33:58;5.80;99.90
67777;DHT22;54576;52.020;5.536;2024-02-23T00:36:24;5.80;99.90
67777;DHT22;54576;52.020;5.536;2024-02-23T00:38:49;5.90;99.90
67777;DHT22;54576;52.020;5.536;2024-02-23T00:41:15;5.90;99.90
67777;DHT22;54576;52.020;5.536;2024-02-23T00:43:41;6.00;99.90
67777;DHT22;54576;52.020;5.536;2024-02-23T00:46:07;6.00;99.90
67777;DHT22;54576;52.020;5.536;2024-02-23T00:48:33;6.00;99.90
67777;DHT22;54576;52.020;5.536;2024-02-23T00:50:59;6.00;99.90
67777;DHT22;54576;52.020;5.536;2024-02-23T00:53:24;6.00;99.90
67777;DHT22;54576;52.020;5.536;2024-02-23T00:55:50;6.00;99.90
67777;DHT22;54576;52.020;5.536;2024-02-23T00:58:15;6.00;99.90
67777;DHT22;54576;52.020;5.536;2024-02-23T01:00:41;6.00;99.90
67777;DHT22;54576;52.020;5.536;2024-02-23T01:03:07;5.90;99.90
67777;DHT22;54576;52.020;5.536;2024-02-23T01:05:32;5.90;99.90
67777;DHT22;54576;52.020;5.536;2024-02-23T01:07:58;5.90;99.90
67777;DHT22;54576;52.020;5.536;2024-02-23T01:10:24;5.90;99.90
67777;DHT22;54576;52.020;5.536;2024-02-23T01:12:49;5.90;99.90
67777;DHT22;54576;52.020;5.536;2024-02-23T01:15:15;5.90;99.90
67777;DHT22;54576;52.020;5.536;2024-02-23T01:17:40;5.90;99.90
67777;DHT22;54576;52.020;5.536;2024-02-23T01:20:06;5.80;99.90
67777;DHT22;54576;52.020;5.536;2024-02-23T01:22:32;5.90;99.90
67777;DHT22;54576;52.020;5.536;2024-02-23T01:24:57;5.90;99.90
67777;DHT22;54576;52.020;5.536;2024-02-23T01:27:23;5.90;99.90
67777;DHT22;54576;52.020;5.536;2024-02-23T01:29:48;5.80;99.90
67777;DHT22;54576;52.020;5.536;2024-02-23T01:32:14;5.80;99.90
67777;DHT22;54576;52.020;5.536;2024-02-23T01:34:39;5.80;99.90
67777;DHT22;54576;52.020;5.536;2024-02-23T01:37:05;5.80;99.90
67777;DHT22;54576;52.020;5.536;2024-02-23T01:39:31;5.70;99.90
67777;DHT22;54576;52.020;5.536;2024-02-23T01:41:56;5.70;99.90
67777;DHT22;54576;52.020;5.536;2024-02-23T01:44:22;5.60;99.90
67777;DHT22;54576;52.020;5.536;2024-02-23T01:46:48;5.60;99.90
67777;DHT22;54576;52.020;5.536;2024-02-23T01:49:14;5.60;99.90
67777;DHT22;54576;52.020;5.536;2024-02-23T01:51:40;5.60;99.90
67777;DHT22;54576;52.020;5.536;2024-02-23T01:54:06;5.60;99.90
67777;DHT22;54576;52.020;5.536;2024-02-23T01:56:32;5.60;99.90
67777;DHT22;54576;52.020;5.536;2024-02-23T01:58:59;5.50;99.90
67777;DHT22;54576;52.020;5.536;2024-02-23T02:01:25;5.50;99.90
67777;DHT22;54576;52.020;5.536;2024-02-23T02:03:51;5.50;99.90
67777;DHT22;54576;52.020;5.536;2024-02-23T02:06:17;5.50;99.90
67777;DHT22;54576;52.020;5.536;2024-02-23T02:08:43;5.40;99.90
67777;DHT22;54576;52.020;5.536;2024-02-23T02:11:08;5.40;99.90
67777;DHT22;54576;52.020;5.536;2024-02-23T02:13:34;5.40;99.90
67777;DHT22;54576;52.020;5.536;2024-02-23T02:16:00;5.40;99.90
67777;DHT22;54576;52.020;5.536;2024-02-23T02:18:27;5.30;99.90
67777;DHT22;54576;52.020;5.536;2024-02-23T02:20:56;5.30;99.90
67777;DHT22;54576;52.020;5.536;2024-02-23T02:23:23;5.30;99.90
67777;DHT22;54576;52.020;5.536;2024-02-23T02:25:58;5.30;99.90
67777;DHT22;54576;52.020;5.536;2024-02-23T02:28:25;5.20;99.90
67777;DHT22;54576;52.020;5.536;2024-02-23T02:30:51;5.20;99.90
67777;DHT22;54576;52.020;5.536;2024-02-23T02:33:18;5.20;99.90
67777;DHT22;54576;52.020;5.536;2024-02-23T02:35:43;5.20;99.90
67777;DHT22;54576;52.020;5.536;2024-02-23T02:38:10;5.20;99.90
67777;DHT22;54576;52.020;5.536;2024-02-23T02:40:36;5.20;99.90
67777;DHT22;54576;52.020;5.536;2024-02-23T02:43:02;5.30;99.90
67777;DHT22;54576;52.020;5.536;2024-02-23T02:45:28;5.30;99.90
67777;DHT22;54576;52.020;5.536;2024-02-23T02:47:53;5.30;99.90
67777;DHT22;54576;52.020;5.536;2024-02-23T02:50:19;5.30;99.90
67777;DHT22;54576;52.020;5.536;2024-02-23T02:52:44;5.30;99.90
67777;DHT22;54576;52.020;5.536;2024-02-23T02:55:10;5.20;99.90
67777;DHT22;54576;52.020;5.536;2024-02-23T02:57:36;5.20;99.90
67777;DHT22;54576;52.020;5.536;2024-02-23T03:00:02;5.20;99.90
67777;DHT22;54576;52.020;5.536;2024-02-23T03:02:31;5.20;99.90
67777;DHT22;54576;52.020;5.536;2024-02-23T03:04:56;5.20;99.90
67777;DHT22;54576;52.020;5.536;2024-02-23T03:07:22;5.20;99.90
67777;DHT22;54576;52.020;5.536;2024-02-23T03:09:48;5.20;99.90
67777;DHT22;54576;52.020;5.536;2024-02-23T03:12:16;5.20;99.90
67777;DHT22;54576;52.020;5.536;2024-02-23T03:14:42;5.20;99.90
67777;DHT22;54576;52.020;5.536;2024-02-23T03:17:08;5.10;99.90
67777;DHT22;54576;52.020;5.536;2024-02-23T03:19:35;5.10;99.90
67777;DHT22;54576;52.020;5.536;2024-02-23T03:22:00;5.10;99.90
67777;DHT22;54576;52.020;5.536;2024-02-23T03:24:26;5.00;99.90
67777;DHT22;54576;52.020;5.536;2024-02-23T03:26:51;5.00;99.90
67777;DHT22;54576;52.020;5.536;2024-02-23T03:29:17;5.00;99.90
67777;DHT22;54576;52.020;5.536;2024-02-23T03:31:43;5.10;99.90
67777;DHT22;54576;52.020;5.536;2024-02-23T03:34:08;5.00;99.90
67777;DHT22;54576;52.020;5.536;2024-02-23T03:36:34;5.00;99.90
67777;DHT22;54576;52.020;5.536;2024-02-23T03:39:00;5.00;99.90
67777;DHT22;54576;52.020;5.536;2024-02-23T03:41:26;5.10;99.90
67777;DHT22;54576;52.020;5.536;2024-02-23T03:43:52;5.10;99.90
67777;DHT22;54576;52.020;5.536;2024-02-23T03:46:17;5.10;99.90
67777;DHT22;54576;52.020;5.536;2024-02-23T03:48:44;5.00;99.90
67777;DHT22;54576;52.020;5.536;2024-02-23T03:51:10;5.00;99.90
67777;DHT22;54576;52.020;5.536;2024-02-23T03:53:35;5.00;99.90
67777;DHT22;54576;52.020;5.536;2024-02-23T03:56:02;5.00;99.90
67777;DHT22;54576;52.020;5.536;2024-02-23T03:58:28;5.00;99.90
67777;DHT22;54576;52.020;5.536;2024-02-23T04:00:53;4.90;99.90
67777;DHT22;54576;52.020;5.536;2024-02-23T04:03:22;4.90;99.90
67777;DHT22;54576;52.020;5.536;2024-02-23T04:05:48;4.90;99.90
67777;DHT22;54576;52.020;5.536;2024-02-23T04:08:13;4.90;99.90
67777;DHT22;54576;52.020;5.536;2024-02-23T04:10:39;4.90;99.90
67777;DHT22;54576;52.020;5.536;2024-02-23T04:13:04;4.90;99.90
67777;DHT22;54576;52.020;5.536;2024-02-23T04:15:30;4.90;99.90
67777;DHT22;54576;52.020;5.536;2024-02-23T04:17:58;4.90;99.90
67777;DHT22;54576;52.020;5.536;2024-02-23T04:20:24;4.90;99.90
67777;DHT22;54576;52.020;5.536;2024-02-23T04:22:49;4.90;99.90
67777;DHT22;54576;52.020;5.536;2024-02-23T04:25:15;4.90;99.90
67777;DHT22;54576;52.020;5.536;2024-02-23T04:27:40;4.90;99.90
67777;DHT22;54576;52.020;5.536;2024-02-23T04:30:06;4.90;99.90
67777;DHT22;54576;52.020;5.536;2024-02-23T04:32:32;4.90;99.90
67777;DHT22;54576;52.020;5.536;2024-02-23T04:34:58;4.90;99.90
67777;DHT22;54576;52.020;5.536;2024-02-23T04:37:23;4.90;99.90
67777;DHT22;54576;52.020;5.536;2024-02-23T04:39:49;4.90;99.90
67777;DHT22;54576;52.020;5.536;2024-02-23T04:42:15;4.90;99.90
67777;DHT22;54576;52.020;5.536;2024-02-23T04:44:43;5.00;99.90
67777;DHT22;54576;52.020;5.536;2024-02-23T04:47:09;5.00;99.90
67777;DHT22;54576;52.020;5.536;2024-02-23T04:49:35;5.10;99.90
67777;DHT22;54576;52.020;5.536;2024-02-23T04:52:00;5.10;99.90
67777;DHT22;54576;52.020;5.536;2024-02-23T04:54:26;5.10;99.90
67777;DHT22;54576;52.020;5.536;2024-02-23T04:56:52;5.20;99.90
67777;DHT22;54576;52.020;5.536;2024-02-23T04:59:17;5.20;99.90
67777;DHT22;54576;52.020;5.536;2024-02-23T05:01:43;5.20;99.90
67777;DHT22;54576;52.020;5.536;2024-02-23T05:04:09;5.20;99.90
67777;DHT22;54576;52.020;5.536;2024-02-23T05:06:34;5.20;99.90
67777;DHT22;54576;52.020;5.536;2024-02-23T05:09:01;5.30;99.90
67777;DHT22;54576;52.020;5.536;2024-02-23T05:11:26;5.30;99.90
67777;DHT22;54576;52.020;5.536;2024-02-23T05:13:52;5.30;99.90
67777;DHT22;54576;52.020;5.536;2024-02-23T05:16:18;5.30;99.90
67777;DHT22;54576;52.020;5.536;2024-02-23T05:18:43;5.40;99.90
67777;DHT22;54576;52.020;5.536;2024-02-23T05:21:09;5.40;99.90
67777;DHT22;54576;52.020;5.536;2024-02-23T05:23:35;5.50;99.90
67777;DHT22;54576;52.020;5.536;2024-02-23T05:26:01;5.50;99.90
67777;DHT22;54576;52.020;5.536;2024-02-23T05:28:26;5.50;99.90
67777;DHT22;54576;52.020;5.536;2024-02-23T05:30:54;5.50;99.90
67777;DHT22;54576;52.020;5.536;2024-02-23T05:33:19;5.50;99.90
67777;DHT22;54576;52.020;5.536;2024-02-23T05:35:46;5.60;99.90
67777;DHT22;54576;52.020;5.536;2024-02-23T05:38:14;5.60;99.90
67777;DHT22;54576;52.020;5.536;2024-02-23T05:40:40;5.60;99.90
67777;DHT22;54576;52.020;5.536;2024-02-23T05:43:05;5.60;99.90
67777;DHT22;54576;52.020;5.536;2024-02-23T05:45:31;5.70;99.90
67777;DHT22;54576;52.020;5.536;2024-02-23T05:47:57;5.70;99.90
67777;DHT22;54576;52.020;5.536;2024-02-23T05:50:22;5.60;99.90
67777;DHT22;54576;52.020;5.536;2024-02-23T05:52:48;5.60;99.90
67777;DHT22;54576;52.020;5.536;2024-02-23T05:55:14;5.60;99.90
67777;DHT22;54576;52.020;5.536;2024-02-23T05:57:40;5.60;99.90
67777;DHT22;54576;52.020;5.536;2024-02-23T06:00:06;5.60;99.90
67777;DHT22;54576;52.020;5.536;2024-02-23T06:02:32;5.70;99.90
67777;DHT22;54576;52.020;5.536;2024-02-23T06:04:58;5.70;99.90
67777;DHT22;54576;52.020;5.536;2024-02-23T06:07:24;5.70;99.90
67777;DHT22;54576;52.020;5.536;2024-02-23T06:09:55;5.70;99.90
67777;DHT22;54576;52.020;5.536;2024-02-23T06:12:20;5.80;99.90
67777;DHT22;54576;52.020;5.536;2024-02-23T06:14:46;5.80;99.90
67777;DHT22;54576;52.020;5.536;2024-02-23T06:17:12;5.80;99.90
67777;DHT22;54576;52.020;5.536;2024-02-23T06:19:37;5.80;99.90
67777;DHT22;54576;52.020;5.536;2024-02-23T06:22:03;5.80;99.90
67777;DHT22;54576;52.020;5.536;2024-02-23T06:24:28;5.80;99.90
67777;DHT22;54576;52.020;5.536;2024-02-23T06:26:54;5.80;99.90
67777;DHT22;54576;52.020;5.536;2024-02-23T06:29:19;5.80;99.90
67777;DHT22;54576;52.020;5.536;2024-02-23T06:31:45;5.80;99.90
67777;DHT22;54576;52.020;5.536;2024-02-23T06:34:15;5.80;99.90
67777;DHT22;54576;52.020;5.536;2024-02-23T06:36:40;5.80;99.90
67777;DHT22;54576;52.020;5.536;2024-02-23T06:39:06;5.80;99.90
67777;DHT22;54576;52.020;5.536;2024-02-23T06:41:31;5.80;99.90
67777;DHT22;54576;52.020;5.536;2024-02-23T06:43:57;5.80;99.90
67777;DHT22;54576;52.020;5.536;2024-02-23T06:46:23;5.90;99.90
67777;DHT22;54576;52.020;5.536;2024-02-23T06:48:48;5.80;99.90
67777;DHT22;54576;52.020;5.536;2024-02-23T06:51:14;5.90;99.90
67777;DHT22;54576;52.020;5.536;2024-02-23T06:53:41;5.90;99.90
67777;DHT22;54576;52.020;5.536;2024-02-23T06:56:06;5.90;99.90
67777;DHT22;54576;52.020;5.536;2024-02-23T06:58:32;6.00;99.90
67777;DHT22;54576;52.020;5.536;2024-02-23T07:00:57;6.00;99.90
67777;DHT22;54576;52.020;5.536;2024-02-23T07:03:23;6.00;99.90
67777;DHT22;54576;52.020;5.536;2024-02-23T07:05:49;6.10;99.90
67777;DHT22;54576;52.020;5.536;2024-02-23T07:08:15;6.10;99.90
67777;DHT22;54576;52.020;5.536;2024-02-23T07:10:41;6.10;99.90
67777;DHT22;54576;52.020;5.536;2024-02-23T07:13:07;6.10;99.90
67777;DHT22;54576;52.020;5.536;2024-02-23T07:15:33;6.10;99.90
67777;DHT22;54576;52.020;5.536;2024-02-23T07:18:01;6.10;99.90
67777;DHT22;54576;52.020;5.536;2024-02-23T07:20:27;6.20;99.90
67777;DHT22;54576;52.020;5.536;2024-02-23T07:22:53;6.10;99.90
67777;DHT22;54576;52.020;5.536;2024-02-23T07:25:19;6.20;99.90
67777;DHT22;54576;52.020;5.536;2024-02-23T07:27:48;6.20;99.90
67777;DHT22;54576;52.020;5.536;2024-02-23T07:30:14;6.30;99.90
67777;DHT22;54576;52.020;5.536;2024-02-23T07:32:40;6.30;99.90
67777;DHT22;54576;52.020;5.536;2024-02-23T07:35:06;6.30;99.90
67777;DHT22;54576;52.020;5.536;2024-02-23T07:37:32;6.30;99.90
67777;DHT22;54576;52.020;5.536;2024-02-23T07:39:57;6.40;99.90
67777;DHT22;54576;52.020;5.536;2024-02-23T07:42:23;6.40;99.90
67777;DHT22;54576;52.020;5.536;2024-02-23T07:44:49;6.40;99.90
67777;DHT22;54576;52.020;5.536;2024-02-23T07:47:14;6.40;99.90
67777;DHT22;54576;52.020;5.536;2024-02-23T07:49:40;6.40;99.90
67777;DHT22;54576;52.020;5.536;2024-02-23T07:52:08;6.40;99.90
67777;DHT22;54576;52.020;5.536;2024-02-23T07:54:34;6.50;99.90
67777;DHT22;54576;52.020;5.536;2024-02-23T07:57:00;6.50;99.90
67777;DHT22;54576;52.020;5.536;2024-02-23T07:59:25;6.60;99.90
67777;DHT22;54576;52.020;5.536;2024-02-23T08:01:51;6.60;99.90
67777;DHT22;54576;52.020;5.536;2024-02-23T08:04:17;6.70;99.90
67777;DHT22;54576;52.020;5.536;2024-02-23T08:06:42;6.70;99.90
67777;DHT22;54576;52.020;5.536;2024-02-23T08:09:08;6.70;99.90
67777;DHT22;54576;52.020;5.536;2024-02-23T08:11:34;6.80;99.90
67777;DHT22;54576;52.020;5.536;2024-02-23T08:14:00;6.80;99.90
67777;DHT22;54576;52.020;5.536;2024-02-23T08:16:26;6.80;99.90
67777;DHT22;54576;52.020;5.536;2024-02-23T08:18:52;6.80;99.90
67777;DHT22;54576;52.020;5.536;2024-02-23T08:21:17;6.80;99.90
67777;DHT22;54576;52.020;5.536;2024-02-23T08:23:44;6.80;99.90
67777;DHT22;54576;52.020;5.536;2024-02-23T08:26:10;6.80;99.90
67777;DHT22;54576;52.020;5.536;2024-02-23T08:28:35;6.90;99.90
67777;DHT22;54576;52.020;5.536;2024-02-23T08:31:01;6.90;99.90
67777;DHT22;54576;52.020;5.536;2024-02-23T08:33:26;6.90;99.90
67777;DHT22;54576;52.020;5.536;2024-02-23T08:35:52;6.90;99.90
67777;DHT22;54576;52.020;5.536;2024-02-23T08:38:21;7.00;99.90
67777;DHT22;54576;52.020;5.536;2024-02-23T08:40:46;7.00;99.90
67777;DHT22;54576;52.020;5.536;2024-02-23T08:43:13;7.00;99.90
67777;DHT22;54576;52.020;5.536;2024-02-23T08:45:38;7.00;99.90
67777;DHT22;54576;52.020;5.536;2024-02-23T08:48:04;7.00;99.90
67777;DHT22;54576;52.020;5.536;2024-02-23T08:50:30;7.00;99.90
67777;DHT22;54576;52.020;5.536;2024-02-23T08:52:55;7.00;99.90
67777;DHT22;54576;52.020;5.536;2024-02-23T08:55:21;7.00;99.90
67777;DHT22;54576;52.020;5.536;2024-02-23T08:57:47;7.00;99.90
67777;DHT22;54576;52.020;5.536;2024-02-23T09:00:13;7.00;99.90
67777;DHT22;54576;52.020;5.536;2024-02-23T09:02:40;7.00;99.90
67777;DHT22;54576;52.020;5.536;2024-02-23T09:05:07;7.00;99.90
67777;DHT22;54576;52.020;5.536;2024-02-23T09:07:33;7.00;99.90
67777;DHT22;54576;52.020;5.536;2024-02-23T09:09:59;7.00;99.90
67777;DHT22;54576;52.020;5.536;2024-02-23T09:12:24;7.00;99.90
67777;DHT22;54576;52.020;5.536;2024-02-23T09:14:50;6.90;99.90
67777;DHT22;54576;52.020;5.536;2024-02-23T09:17:15;7.00;99.90
67777;DHT22;54576;52.020;5.536;2024-02-23T09:19:41;7.00;99.90
67777;DHT22;54576;52.020;5.536;2024-02-23T09:22:06;7.00;99.90
67777;DHT22;54576;52.020;5.536;2024-02-23T09:24:32;7.00;99.90
67777;DHT22;54576;52.020;5.536;2024-02-23T09:26:58;7.10;99.90
67777;DHT22;54576;52.020;5.536;2024-02-23T09:29:23;7.10;99.90
67777;DHT22;54576;52.020;5.536;2024-02-23T09:31:49;7.20;99.90
67777;DHT22;54576;52.020;5.536;2024-02-23T09:34:15;7.20;99.90
67777;DHT22;54576;52.020;5.536;2024-02-23T09:36:40;7.30;99.90
67777;DHT22;54576;52.020;5.536;2024-02-23T09:39:06;7.30;99.90
67777;DHT22;54576;52.020;5.536;2024-02-23T09:41:32;7.30;99.90
67777;DHT22;54576;52.020;5.536;2024-02-23T09:44:01;7.40;99.90
67777;DHT22;54576;52.020;5.536;2024-02-23T09:46:27;7.40;99.90
67777;DHT22;54576;52.020;5.536;2024-02-23T09:48:53;7.40;99.90
67777;DHT22;54576;52.020;5.536;2024-02-23T09:51:21;7.40;99.90
67777;DHT22;54576;52.020;5.536;2024-02-23T09:53:49;7.40;99.90
67777;DHT22;54576;52.020;5.536;2024-02-23T09:56:17;7.40;99.90
67777;DHT22;54576;52.020;5.536;2024-02-23T09:58:44;7.40;99.90
67777;DHT22;54576;52.020;5.536;2024-02-23T10:01:12;7.30;99.90
67777;DHT22;54576;52.020;5.536;2024-02-23T10:03:40;7.20;99.90
67777;DHT22;54576;52.020;5.536;2024-02-23T10:06:07;7.20;99.90
67777;DHT22;54576;52.020;5.536;2024-02-23T10:08:32;7.10;99.90
67777;DHT22;54576;52.020;5.536;2024-02-23T10:11:01;7.10;99.90
67777;DHT22;54576;52.020;5.536;2024-02-23T10:13:26;7.20;99.90
67777;DHT22;54576;52.020;5.536;2024-02-23T10:15:52;7.20;99.90
67777;DHT22;54576;52.020;5.536;2024-02-23T10:18:19;7.20;99.90
67777;DHT22;54576;52.020;5.536;2024-02-23T10:20:48;7.20;99.90
67777;DHT22;54576;52.020;5.536;2024-02-23T10:23:15;7.30;99.90
67777;DHT22;54576;52.020;5.536;2024-02-23T10:25:41;7.20;99.90
67777;DHT22;54576;52.020;5.536;2024-02-23T10:28:07;7.20;99.90
67777;DHT22;54576;52.020;5.536;2024-02-23T10:30:33;7.30;99.90
67777;DHT22;54576;52.020;5.536;2024-02-23T10:32:59;7.40;99.90
67777;DHT22;54576;52.020;5.536;2024-02-23T10:35:25;7.40;99.90
67777;DHT22;54576;52.020;5.536;2024-02-23T10:37:52;7.50;99.90
67777;DHT22;54576;52.020;5.536;2024-02-23T10:40:19;7.60;99.90
67777;DHT22;54576;52.020;5.536;2024-02-23T10:42:47;7.60;99.90
67777;DHT22;54576;52.020;5.536;2024-02-23T10:45:17;7.60;99.90
67777;DHT22;54576;52.020;5.536;2024-02-23T10:47:42;7.60;99.90
67777;DHT22;54576;52.020;5.536;2024-02-23T10:50:09;7.60;99.90
67777;DHT22;54576;52.020;5.536;2024-02-23T10:52:35;7.50;99.90
67777;DHT22;54576;52.020;5.536;2024-02-23T10:55:02;7.50;99.90
67777;DHT22;54576;52.020;5.536;2024-02-23T10:57:34;7.50;99.90
67777;DHT22;54576;52.020;5.536;2024-02-23T11:00:00;7.50;99.90
67777;DHT22;54576;52.020;5.536;2024-02-23T11:02:28;7.50;99.90
67777;DHT22;54576;52.020;5.536;2024-02-23T11:04:57;7.50;99.90
67777;DHT22;54576;52.020;5.536;2024-02-23T11:07:23;7.60;99.90
67777;DHT22;54576;52.020;5.536;2024-02-23T11:10:13;7.60;99.90
67777;DHT22;54576;52.020;5.536;2024-02-23T11:12:38;7.50;99.90
67777;DHT22;54576;52.020;5.536;2024-02-23T11:15:04;7.60;99.90
67777;DHT22;54576;52.020;5.536;2024-02-23T11:17:31;7.60;99.90
67777;DHT22;54576;52.020;5.536;2024-02-23T11:19:58;7.70;99.90
67777;DHT22;54576;52.020;5.536;2024-02-23T11:22:41;7.80;99.90
67777;DHT22;54576;52.020;5.536;2024-02-23T11:25:08;7.80;99.90
67777;DHT22;54576;52.020;5.536;2024-02-23T11:27:36;7.80;99.90
67777;DHT22;54576;52.020;5.536;2024-02-23T11:30:07;7.80;99.90
67777;DHT22;54576;52.020;5.536;2024-02-23T11:32:47;7.80;99.90
67777;DHT22;54576;52.020;5.536;2024-02-23T11:35:15;7.90;99.90
67777;DHT22;54576;52.020;5.536;2024-02-23T11:37:53;7.90;99.90
67777;DHT22;54576;52.020;5.536;2024-02-23T11:40:28;7.90;99.90
67777;DHT22;54576;52.020;5.536;2024-02-23T11:42:54;8.00;99.90
67777;DHT22;54576;52.020;5.536;2024-02-23T11:45:20;8.00;99.90
67777;DHT22;54576;52.020;5.536;2024-02-23T11:47:46;8.10;99.90
67777;DHT22;54576;52.020;5.536;2024-02-23T11:50:13;8.10;99.90
67777;DHT22;54576;52.020;5.536;2024-02-23T11:52:38;8.10;99.90
67777;DHT22;54576;52.020;5.536;2024-02-23T11:55:04;8.20;99.90
67777;DHT22;54576;52.020;5.536;2024-02-23T11:57:32;8.30;99.90
67777;DHT22;54576;52.020;5.536;2024-02-23T11:59:57;8.30;99.90
67777;DHT22;54576;52.020;5.536;2024-02-23T12:02:24;8.40;99.90
67777;DHT22;54576;52.020;5.536;2024-02-23T12:04:49;8.40;99.90
67777;DHT22;54576;52.020;5.536;2024-02-23T12:07:15;8.40;99.90
67777;DHT22;54576;52.020;5.536;2024-02-23T12:09:41;8.50;99.90
67777;DHT22;54576;52.020;5.536;2024-02-23T12:12:07;8.60;99.90
67777;DHT22;54576;52.020;5.536;2024-02-23T12:14:37;8.60;99.90
67777;DHT22;54576;52.020;5.536;2024-02-23T12:17:03;8.60;99.90
67777;DHT22;54576;52.020;5.536;2024-02-23T12:19:29;8.60;99.90
67777;DHT22;54576;52.020;5.536;2024-02-23T12:22:02;8.70;99.90
67777;DHT22;54576;52.020;5.536;2024-02-23T12:24:29;8.60;99.90
67777;DHT22;54576;52.020;5.536;2024-02-23T12:26:55;8.70;99.90
67777;DHT22;54576;52.020;5.536;2024-02-23T12:29:21;8.80;99.90
67777;DHT22;54576;52.020;5.536;2024-02-23T12:31:47;8.90;99.90
67777;DHT22;54576;52.020;5.536;2024-02-23T12:34:13;9.00;99.90
67777;DHT22;54576;52.020;5.536;2024-02-23T12:36:39;9.00;99.90
67777;DHT22;54576;52.020;5.536;2024-02-23T12:39:05;9.00;99.90
67777;DHT22;54576;52.020;5.536;2024-02-23T12:41:31;9.10;99.90
67777;DHT22;54576;52.020;5.536;2024-02-23T12:43:56;9.10;99.90
67777;DHT22;54576;52.020;5.536;2024-02-23T12:46:25;9.10;99.90
67777;DHT22;54576;52.020;5.536;2024-02-23T12:48:51;9.10;99.90
67777;DHT22;54576;52.020;5.536;2024-02-23T12:51:16;9.10;99.90
67777;DHT22;54576;52.020;5.536;2024-02-23T12:53:42;9.20;99.90
67777;DHT22;54576;52.020;5.536;2024-02-23T12:56:13;9.30;99.90
67777;DHT22;54576;52.020;5.536;2024-02-23T12:58:43;9.30;99.90
67777;DHT22;54576;52.020;5.536;2024-02-23T13:01:10;9.30;99.90
67777;DHT22;54576;52.020;5.536;2024-02-23T13:03:37;9.30;99.90
67777;DHT22;54576;52.020;5.536;2024-02-23T13:06:04;9.40;99.90
67777;DHT22;54576;52.020;5.536;2024-02-23T13:08:30;9.40;99.90
67777;DHT22;54576;52.020;5.536;2024-02-23T13:10:57;9.40;99.90
67777;DHT22;54576;52.020;5.536;2024-02-23T13:13:23;9.50;99.90
67777;DHT22;54576;52.020;5.536;2024-02-23T13:15:50;9.40;99.90
67777;DHT22;54576;52.020;5.536;2024-02-23T13:18:16;9.30;99.90
67777;DHT22;54576;52.020;5.536;2024-02-23T13:20:42;9.30;99.90
67777;DHT22;54576;52.020;5.536;2024-02-23T13:23:11;9.20;99.90
67777;DHT22;54576;52.020;5.536;2024-02-23T13:25:40;9.10;99.90
67777;DHT22;54576;52.020;5.536;2024-02-23T13:28:06;9.10;99.90
67777;DHT22;54576;52.020;5.536;2024-02-23T13:30:33;9.00;99.90
67777;DHT22;54576;52.020;5.536;2024-02-23T13:32:59;9.10;99.90
67777;DHT22;54576;52.020;5.536;2024-02-23T13:35:25;9.10;99.90
67777;DHT22;54576;52.020;5.536;2024-02-23T13:37:51;9.20;99.90
67777;DHT22;54576;52.020;5.536;2024-02-23T13:40:17;9.30;99.90
67777;DHT22;54576;52.020;5.536;2024-02-23T13:42:42;9.30;99.90
67777;DHT22;54576;52.020;5.536;2024-02-23T13:45:11;9.30;99.90
67777;DHT22;54576;52.020;5.536;2024-02-23T13:47:39;9.40;99.90
67777;DHT22;54576;52.020;5.536;2024-02-23T13:50:05;9.40;99.90
67777;DHT22;54576;52.020;5.536;2024-02-23T13:52:31;9.50;99.90
67777;DHT22;54576;52.020;5.536;2024-02-23T13:54:57;9.60;99.90
67777;DHT22;54576;52.020;5.536;2024-02-23T13:57:22;9.60;99.90
67777;DHT22;54576;52.020;5.536;2024-02-23T13:59:48;9.60;99.90
67777;DHT22;54576;52.020;5.536;2024-02-23T14:09:33;9.60;99.90
67777;DHT22;54576;52.020;5.536;2024-02-23T14:11:59;9.60;99.90
67777;DHT22;54576;52.020;5.536;2024-02-23T14:14:27;9.50;99.90
67777;DHT22;54576;52.020;5.536;2024-02-23T14:16:52;9.50;99.90
67777;DHT22;54576;52.020;5.536;2024-02-23T14:19:18;9.50;99.90
67777;DHT22;54576;52.020;5.536;2024-02-23T14:21:45;9.40;99.90
67777;DHT22;54576;52.020;5.536;2024-02-23T14:24:12;9.40;99.90
67777;DHT22;54576;52.020;5.536;2024-02-23T14:26:37;9.40;99.90
67777;DHT22;54576;52.020;5.536;2024-02-23T14:29:03;9.40;99.90
67777;DHT22;54576;52.020;5.536;2024-02-23T14:31:28;9.40;99.90
67777;DHT22;54576;52.020;5.536;2024-02-23T14:33:54;9.40;99.90
67777;DHT22;54576;52.020;5.536;2024-02-23T14:36:19;9.40;99.90
67777;DHT22;54576;52.020;5.536;2024-02-23T14:38:45;9.50;99.90
67777;DHT22;54576;52.020;5.536;2024-02-23T14:41:11;9.50;99.90
67777;DHT22;54576;52.020;5.536;2024-02-23T14:43:36;9.50;99.90
67777;DHT22;54576;52.020;5.536;2024-02-23T14:46:03;9.60;99.90
67777;DHT22;54576;52.020;5.536;2024-02-23T14:50:56;9.60;99.90
67777;DHT22;54576;52.020;5.536;2024-02-23T14:53:23;9.70;99.90
67777;DHT22;54576;52.020;5.536;2024-02-23T14:55:49;9.70;99.90
67777;DHT22;54576;52.020;5.536;2024-02-23T14:58:14;9.60;99.90
67777;DHT22;54576;52.020;5.536;2024-02-23T15:00:40;9.70;99.90
67777;DHT22;54576;52.020;5.536;2024-02-23T15:03:06;9.70;99.90
67777;DHT22;54576;52.020;5.536;2024-02-23T15:07:57;9.60;99.90
67777;DHT22;54576;52.020;5.536;2024-02-23T15:10:23;9.60;99.90
67777;DHT22;54576;52.020;5.536;2024-02-23T15:12:48;9.60;99.90
67777;DHT22;54576;52.020;5.536;2024-02-23T15:15:14;9.60;99.90
67777;DHT22;54576;52.020;5.536;2024-02-23T15:25:07;9.70;99.90
67777;DHT22;54576;52.020;5.536;2024-02-23T15:27:34;9.60;99.90
67777;DHT22;54576;52.020;5.536;2024-02-23T15:30:00;9.40;99.90
67777;DHT22;54576;52.020;5.536;2024-02-23T15:32:25;9.20;99.90
67777;DHT22;54576;52.020;5.536;2024-02-23T15:34:51;9.10;99.90
67777;DHT22;54576;52.020;5.536;2024-02-23T15:37:16;9.00;99.90
67777;DHT22;54576;52.020;5.536;2024-02-23T15:39:42;8.90;99.90
67777;DHT22;54576;52.020;5.536;2024-02-23T15:42:08;8.80;99.90
67777;DHT22;54576;52.020;5.536;2024-02-23T15:44:34;8.70;99.90
67777;DHT22;54576;52.020;5.536;2024-02-23T15:46:59;8.60;99.90
67777;DHT22;54576;52.020;5.536;2024-02-23T15:49:25;8.60;99.90
67777;DHT22;54576;52.020;5.536;2024-02-23T15:51:50;8.60;99.90
67777;DHT22;54576;52.020;5.536;2024-02-23T15:54:16;8.50;99.90
67777;DHT22;54576;52.020;5.536;2024-02-23T15:56:42;8.50;99.90
67777;DHT22;54576;52.020;5.536;2024-02-23T15:59:08;8.50;99.90